^^
Your Local Weather - Clay, NY Station Historical Data
Daily Summary for April 7, 2017 Units:  Metric    English   Both
« Previous Day
Next Day »
Daily Weekly Monthly Yearly Custom
  High: Low: Average:
Temperature: 4.7 °C 0.2 °C 1.7 °C
Dew Point: 3.6 °C -2.7 °C 0.1 °C
Humidity: 94% 69% 89%
Wind Speed: 11.3km/h 1.6km/h 6.1km/h
Wind Gust: 17.7km/h - -
Wind- - WNW
Pressure: 1005.3 hPa 984.6 hPa -
Precipitation: 10.16 mm    
Historical Graphs
 
 
Tabular Data for April 7, 2017
Time Temperature Dew Point Pressure Wind Wind Speed Wind Gust Humidity Rainfall Rate (Hourly) solar
00:04 4.7 °C 3.6 °C 984.6 hPa WSW 3.2 km/h 8 km/h 93% 0 mm 0 W/m2
00:10 4.7 °C 3.6 °C 984.6 hPa West 3.2 km/h 4.8 km/h 93% 0 mm 0 W/m2
00:16 4.7 °C 3.6 °C 984.6 hPa WSW 3.2 km/h 8 km/h 93% 0 mm 0 W/m2
00:22 4.7 °C 3.6 °C 985 hPa SSW 3.2 km/h 3.2 km/h 93% 1.52 mm 0 W/m2
00:28 4.7 °C 3.6 °C 985 hPa WSW 4.8 km/h 11.3 km/h 93% 1.52 mm 0 W/m2
00:34 4.6 °C 3.6 °C 985 hPa WSW 4.8 km/h 8 km/h 93% 1.52 mm 0 W/m2
00:40 4.5 °C 3.4 °C 985 hPa West 6.4 km/h 12.9 km/h 93% 1.27 mm 0 W/m2
00:46 4.3 °C 3.2 °C 985 hPa WSW 6.4 km/h 12.9 km/h 93% 1.27 mm 0 W/m2
00:52 4.1 °C 2.9 °C 985.3 hPa SW 8 km/h 16.1 km/h 92% 2.03 mm 0 W/m2
00:58 4.1 °C 2.9 °C 985.7 hPa West 8 km/h 16.1 km/h 92% 1.78 mm 0 W/m2
01:04 4.1 °C 2.9 °C 985.7 hPa West 8 km/h 17.7 km/h 92% 1.78 mm 0 W/m2
01:10 3.9 °C 2.8 °C 985.7 hPa WNW 8 km/h 8 km/h 92% 2.03 mm 0 W/m2
01:16 3.9 °C 2.7 °C 985.7 hPa SW 9.7 km/h 9.7 km/h 92% 1.27 mm 0 W/m2
01:22 3.8 °C 2.4 °C 986 hPa SW 6.4 km/h 9.7 km/h 91% 1.02 mm 0 W/m2
01:28 3.6 °C 2.3 °C 986.3 hPa WSW 6.4 km/h 9.7 km/h 91% 1.52 mm 0 W/m2
01:34 3.4 °C 2.1 °C 986.3 hPa SW 8 km/h 11.3 km/h 91% 1.52 mm 0 W/m2
01:40 3.1 °C 1.8 °C 986.3 hPa SW 8 km/h 9.7 km/h 91% 1.52 mm 0 W/m2
01:46 2.7 °C 1.4 °C 986.7 hPa SW 8 km/h 9.7 km/h 91% 1.52 mm 0 W/m2
01:52 2.2 °C 0.8 °C 986.7 hPa WNW 8 km/h 8 km/h 90% 1.52 mm 0 W/m2
01:58 1.8 °C 0.4 °C 986.7 hPa WSW 6.4 km/h 8 km/h 90% 1.52 mm 0 W/m2
02:04 1.7 °C 0.3 °C 986.7 hPa WSW 8 km/h 9.7 km/h 91% 1.02 mm 0 W/m2
02:10 1.5 °C 0.2 °C 986.7 hPa West 9.7 km/h 9.7 km/h 91% 0 mm 0 W/m2
02:16 1.3 °C 0 °C 986.7 hPa West 8 km/h 9.7 km/h 91% 0 mm 0 W/m2
02:22 1.2 °C -0.2 °C 986.7 hPa WSW 8 km/h 8 km/h 91% 0 mm 0 W/m2
02:28 1.1 °C -0.2 °C 986.7 hPa WSW 8 km/h 8 km/h 91% 0 mm 0 W/m2
02:34 0.9 °C -0.3 °C 986.7 hPa WSW 6.4 km/h 8 km/h 91% 0 mm 0 W/m2
02:40 0.9 °C -0.4 °C 987 hPa SSW 6.4 km/h 6.4 km/h 91% 0 mm 0 W/m2
02:46 0.9 °C -0.3 °C 987 hPa SW 6.4 km/h 17.7 km/h 92% 0 mm 0 W/m2
02:52 0.8 °C -0.3 °C 987 hPa WSW 8 km/h 8 km/h 92% 0 mm 0 W/m2
02:58 0.8 °C -0.3 °C 987.4 hPa WSW 6.4 km/h 9.7 km/h 92% 0 mm 0 W/m2
03:04 0.8 °C -0.3 °C 987.4 hPa WSW 4.8 km/h 14.5 km/h 92% 0 mm 0 W/m2
03:10 0.8 °C -0.4 °C 987.4 hPa West 4.8 km/h 4.8 km/h 92% 0 mm 0 W/m2
03:16 0.7 °C -0.4 °C 987.4 hPa WSW 6.4 km/h 9.7 km/h 92% 0 mm 0 W/m2
03:22 0.7 °C -0.5 °C 987.4 hPa WSW 6.4 km/h 8 km/h 92% 0 mm 0 W/m2
03:28 0.6 °C -0.6 °C 987.4 hPa WSW 4.8 km/h 8 km/h 92% 0 mm 0 W/m2
03:34 0.6 °C -0.6 °C 987.4 hPa SW 4.8 km/h 6.4 km/h 92% 0 mm 0 W/m2
03:40 0.5 °C -0.7 °C 987.7 hPa WSW 4.8 km/h 4.8 km/h 92% 0 mm 0 W/m2
03:46 0.4 °C -0.7 °C 987.7 hPa WSW 3.2 km/h 8 km/h 92% 0 mm 0 W/m2
03:52 0.4 °C -0.7 °C 987.7 hPa SW 3.2 km/h 4.8 km/h 92% 0 mm 0 W/m2
03:58 0.4 °C -0.7 °C 987.7 hPa West 4.8 km/h 4.8 km/h 92% 0 mm 0 W/m2
04:04 0.4 °C -0.7 °C 987.7 hPa SW 4.8 km/h 4.8 km/h 92% 0 mm 0 W/m2
04:10 0.4 °C -0.8 °C 987.7 hPa SSW 3.2 km/h 3.2 km/h 92% 0 mm 0 W/m2
04:16 0.3 °C -0.8 °C 987.7 hPa SSW 4.8 km/h 6.4 km/h 92% 0 mm 0 W/m2
04:22 0.3 °C -0.7 °C 988 hPa WSW 4.8 km/h 8 km/h 93% 0 mm 0 W/m2
04:28 0.3 °C -0.7 °C 988 hPa SW 4.8 km/h 9.7 km/h 93% 0 mm 0 W/m2
04:34 0.2 °C -0.8 °C 988 hPa SW 4.8 km/h 4.8 km/h 93% 0 mm 0 W/m2
04:40 0.2 °C -0.8 °C 988 hPa SW 3.2 km/h 3.2 km/h 93% 0 mm 0 W/m2
04:46 0.2 °C -0.8 °C 988 hPa West 3.2 km/h 3.2 km/h 93% 0 mm 0 W/m2
04:52 0.2 °C -0.8 °C 988 hPa WSW 3.2 km/h 4.8 km/h 93% 0 mm 0 W/m2
04:58 0.3 °C -0.7 °C 988.4 hPa WSW 4.8 km/h 4.8 km/h 93% 0 mm 0 W/m2
05:06 0.3 °C -0.7 °C 988.4 hPa SW 3.2 km/h 6.4 km/h 93% 0 mm 0 W/m2
05:12 0.3 °C -0.7 °C 988.4 hPa West 4.8 km/h 4.8 km/h 93% 0 mm 0 W/m2
05:18 0.4 °C -0.6 °C 988.4 hPa West 3.2 km/h 6.4 km/h 93% 0 mm 0 W/m2
05:24 0.4 °C -0.6 °C 988.4 hPa West 3.2 km/h 8 km/h 93% 0 mm 0 W/m2
05:30 0.4 °C -0.6 °C 988.4 hPa WSW 3.2 km/h 3.2 km/h 93% 0 mm 0 W/m2
05:36 0.4 °C -0.6 °C 988.4 hPa West 3.2 km/h 4.8 km/h 93% 0 mm 0 W/m2
05:42 0.4 °C -0.6 °C 988.4 hPa WSW 3.2 km/h 3.2 km/h 93% 0 mm 0 W/m2
05:48 0.4 °C -0.6 °C 988.4 hPa WSW 3.2 km/h 8 km/h 93% 0 mm 0 W/m2
05:54 0.4 °C -0.6 °C 988.4 hPa WSW 3.2 km/h 6.4 km/h 93% 0 mm 0 W/m2
06:00 0.4 °C -0.6 °C 988.4 hPa SW 3.2 km/h 4.8 km/h 93% 0 mm 0 W/m2
06:06 0.4 °C -0.6 °C 988.7 hPa WSW 4.8 km/h 4.8 km/h 93% 0 mm 0 W/m2
06:12 0.4 °C -0.6 °C 988.7 hPa WSW 4.8 km/h 4.8 km/h 93% 0 mm 0 W/m2
06:18 0.4 °C -0.6 °C 989.1 hPa WSW 4.8 km/h 4.8 km/h 93% 0 mm 0 W/m2
06:24 0.5 °C -0.5 °C 989.1 hPa WSW 4.8 km/h 8 km/h 93% 0 mm 0 W/m2
06:30 0.6 °C -0.4 °C 989.1 hPa West 3.2 km/h 3.2 km/h 93% 0 mm 0 W/m2
06:36 0.6 °C -0.4 °C 989.1 hPa WSW 3.2 km/h 6.4 km/h 93% 0 mm 0 W/m2
06:42 0.6 °C -0.4 °C 989.1 hPa WSW 4.8 km/h 4.8 km/h 93% 0 mm 0 W/m2
06:48 0.6 °C -0.4 °C 989.1 hPa WSW 3.2 km/h 9.7 km/h 93% 0 mm 0 W/m2
06:54 0.7 °C -0.3 °C 989.4 hPa West 3.2 km/h 3.2 km/h 93% 0 mm 5 W/m2
07:00 0.7 °C -0.3 °C 989.4 hPa West 3.2 km/h 4.8 km/h 93% 0 mm 11 W/m2
07:06 0.8 °C -0.2 °C 989.4 hPa WSW 3.2 km/h 4.8 km/h 93% 0 mm 12 W/m2
07:12 0.8 °C -0.2 °C 989.4 hPa West 3.2 km/h 3.2 km/h 93% 0 mm 14 W/m2
07:18 0.8 °C -0.2 °C 989.7 hPa West 1.6 km/h 6.4 km/h 93% 0 mm 18 W/m2
07:24 0.8 °C -0.2 °C 989.7 hPa West 3.2 km/h 6.4 km/h 93% 0 mm 23 W/m2
07:30 0.8 °C -0.2 °C 989.7 hPa West 3.2 km/h 3.2 km/h 93% 0 mm 25 W/m2
07:36 0.9 °C -0.1 °C 989.7 hPa WSW 3.2 km/h 4.8 km/h 93% 0 mm 32 W/m2
07:42 0.9 °C -0.1 °C 990.1 hPa WSW 3.2 km/h 8 km/h 93% 0 mm 40 W/m2
07:48 1.1 °C 0.1 °C 990.1 hPa WSW 3.2 km/h 8 km/h 93% 0 mm 46 W/m2
07:54 1.1 °C 0.1 °C 990.1 hPa WSW 3.2 km/h 8 km/h 93% 1.02 mm 40 W/m2
08:00 1.1 °C 0.3 °C 990.4 hPa WNW 3.2 km/h 9.7 km/h 94% 1.02 mm 42 W/m2
08:06 1.2 °C 0.2 °C 990.4 hPa West 3.2 km/h 9.7 km/h 93% 1.02 mm 46 W/m2
08:12 1.2 °C 0.2 °C 990.4 hPa WNW 4.8 km/h 9.7 km/h 93% 0 mm 44 W/m2
08:18 1.2 °C 0.2 °C 990.4 hPa West 3.2 km/h 9.7 km/h 93% 0 mm 44 W/m2
08:24 1.2 °C 0.2 °C 990.4 hPa WSW 3.2 km/h 6.4 km/h 93% 1.27 mm 47 W/m2
08:30 1.2 °C 0.2 °C 990.7 hPa NNW 3.2 km/h 4.8 km/h 93% 1.27 mm 56 W/m2
08:36 1.2 °C 0.2 °C 990.7 hPa West 4.8 km/h 6.4 km/h 93% 1.27 mm 60 W/m2
08:42 1.2 °C 0.2 °C 990.7 hPa WSW 4.8 km/h 4.8 km/h 93% 1.27 mm 58 W/m2
08:48 1.3 °C 0.3 °C 990.7 hPa West 3.2 km/h 4.8 km/h 93% 1.02 mm 62 W/m2
08:54 1.3 °C 0.3 °C 991.1 hPa WNW 3.2 km/h 6.4 km/h 93% 1.02 mm 53 W/m2
09:00 1.3 °C 0.3 °C 991.1 hPa WNW 3.2 km/h 3.2 km/h 93% 1.02 mm 49 W/m2
09:06 1.4 °C 0.4 °C 991.1 hPa West 3.2 km/h 6.4 km/h 93% 0 mm 53 W/m2
09:12 1.6 °C 0.6 °C 991.4 hPa WSW 1.6 km/h 6.4 km/h 93% 0 mm 65 W/m2
09:18 1.7 °C 0.7 °C 991.4 hPa West 3.2 km/h 6.4 km/h 93% 0 mm 74 W/m2
09:24 1.8 °C 0.9 °C 991.4 hPa NW 4.8 km/h 4.8 km/h 94% 0 mm 76 W/m2
09:30 1.8 °C 0.8 °C 991.4 hPa NW 4.8 km/h 4.8 km/h 93% 0 mm 72 W/m2
09:36 1.9 °C 0.9 °C 991.8 hPa NW 4.8 km/h 9.7 km/h 93% 0 mm 72 W/m2
09:42 1.9 °C 0.9 °C 991.8 hPa WNW 4.8 km/h 6.4 km/h 93% 0 mm 81 W/m2
09:48 2 °C 1 °C 992.1 hPa WNW 4.8 km/h 6.4 km/h 93% 0 mm 83 W/m2
09:54 2.1 °C 1.1 °C 992.1 hPa NW 4.8 km/h 4.8 km/h 93% 0 mm 95 W/m2
10:00 2.1 °C 1.1 °C 992.1 hPa WNW 4.8 km/h 4.8 km/h 93% 0 mm 97 W/m2
10:06 2.1 °C 1.1 °C 992.1 hPa NNW 4.8 km/h 9.7 km/h 93% 0 mm 114 W/m2
10:12 2.2 °C 1.2 °C 992.4 hPa WNW 6.4 km/h 8 km/h 93% 0 mm 142 W/m2
10:18 2.2 °C 1.2 °C 992.4 hPa NW 6.4 km/h 8 km/h 93% 0 mm 169 W/m2
10:24 2.3 °C 1.3 °C 992.4 hPa WNW 6.4 km/h 8 km/h 93% 0 mm 171 W/m2
10:30 2.4 °C 1.4 °C 992.8 hPa WNW 4.8 km/h 9.7 km/h 93% 0 mm 135 W/m2
10:36 2.3 °C 1.3 °C 992.8 hPa WNW 6.4 km/h 9.7 km/h 93% 0 mm 114 W/m2
10:42 2.2 °C 1.2 °C 992.8 hPa WNW 8 km/h 8 km/h 93% 0 mm 149 W/m2
10:48 2.1 °C 0.9 °C 993.1 hPa NNW 8 km/h 12.9 km/h 92% 0 mm 153 W/m2
10:54 2.1 °C 0.9 °C 993.1 hPa WNW 9.7 km/h 14.5 km/h 92% 0 mm 130 W/m2
11:00 2.1 °C 0.9 °C 993.1 hPa NW 8 km/h 8 km/h 92% 0 mm 171 W/m2
11:06 2.1 °C 0.9 °C 993.5 hPa NW 6.4 km/h 8 km/h 92% 0 mm 148 W/m2
11:12 2.1 °C 0.9 °C 993.5 hPa NW 6.4 km/h 8 km/h 92% 0 mm 141 W/m2
11:18 2.1 °C 0.9 °C 993.8 hPa WNW 6.4 km/h 8 km/h 92% 0 mm 162 W/m2
11:24 2 °C 0.8 °C 993.8 hPa West 6.4 km/h 8 km/h 92% 0 mm 176 W/m2
11:30 1.9 °C 0.8 °C 993.8 hPa West 8 km/h 8 km/h 92% 0 mm 144 W/m2
11:36 2 °C 0.8 °C 994.1 hPa North 6.4 km/h 8 km/h 92% 0 mm 156 W/m2
11:42 1.9 °C 0.8 °C 994.1 hPa WNW 6.4 km/h 6.4 km/h 92% 0 mm 130 W/m2
11:48 1.8 °C 0.4 °C 994.1 hPa WNW 6.4 km/h 6.4 km/h 91% 0 mm 127 W/m2
11:54 1.7 °C 0.3 °C 994.1 hPa WNW 8 km/h 12.9 km/h 91% 0 mm 130 W/m2
12:00 1.7 °C 0.3 °C 994.5 hPa NNW 6.4 km/h 6.4 km/h 91% 0 mm 120 W/m2
12:06 1.7 °C 0.5 °C 994.8 hPa WNW 6.4 km/h 8 km/h 92% 0 mm 132 W/m2
12:12 1.4 °C 0.3 °C 994.8 hPa WNW 8 km/h 11.3 km/h 92% 0 mm 135 W/m2
12:18 1.5 °C 0.3 °C 994.8 hPa WNW 8 km/h 11.3 km/h 92% 0 mm 139 W/m2
12:24 1.5 °C 0.3 °C 994.8 hPa WNW 6.4 km/h 8 km/h 92% 0 mm 171 W/m2
12:30 1.5 °C 0.3 °C 995.1 hPa WNW 6.4 km/h 8 km/h 92% 0 mm 181 W/m2
12:36 1.6 °C 0.4 °C 995.1 hPa WNW 8 km/h 16.1 km/h 92% 0 mm 190 W/m2
12:42 1.6 °C 0.4 °C 995.1 hPa WNW 8 km/h 11.3 km/h 92% 0 mm 199 W/m2
12:48 1.6 °C 0.4 °C 995.5 hPa NNW 8 km/h 16.1 km/h 92% 0 mm 188 W/m2
12:54 1.6 °C 0.4 °C 995.5 hPa NW 8 km/h 8 km/h 92% 0 mm 227 W/m2
13:00 1.8 °C 0.6 °C 995.5 hPa WNW 6.4 km/h 9.7 km/h 92% 0 mm 255 W/m2
13:06 1.7 °C 0.6 °C 995.5 hPa WNW 8 km/h 11.3 km/h 92% 0 mm 227 W/m2
13:12 1.7 °C 0.6 °C 995.5 hPa WNW 8 km/h 11.3 km/h 92% 0 mm 234 W/m2
13:18 1.6 °C 0.3 °C 995.8 hPa NW 9.7 km/h 11.3 km/h 91% 0 mm 218 W/m2
13:24 1.7 °C 0.3 °C 995.8 hPa WNW 8 km/h 9.7 km/h 91% 0 mm 234 W/m2
13:30 1.8 °C 0.4 °C 995.8 hPa NNW 6.4 km/h 8 km/h 91% 0 mm 225 W/m2
13:36 1.8 °C 0.7 °C 996.2 hPa WNW 8 km/h 8 km/h 92% 0 mm 229 W/m2
13:42 1.9 °C 0.7 °C 996.2 hPa WNW 8 km/h 9.7 km/h 92% 0 mm 193 W/m2
13:48 1.8 °C 0.4 °C 996.2 hPa WNW 8 km/h 14.5 km/h 91% 0 mm 178 W/m2
13:54 1.9 °C 0.6 °C 996.5 hPa WNW 8 km/h 8 km/h 91% 0 mm 188 W/m2
14:00 1.8 °C 0.5 °C 996.5 hPa NW 8 km/h 8 km/h 91% 0 mm 163 W/m2
14:06 1.8 °C 0.5 °C 996.5 hPa WNW 8 km/h 9.7 km/h 91% 0 mm 163 W/m2
14:12 1.7 °C 0.4 °C 996.5 hPa West 6.4 km/h 8 km/h 91% 1.02 mm 162 W/m2
14:18 1.8 °C 0.5 °C 996.5 hPa WNW 6.4 km/h 8 km/h 91% 1.02 mm 172 W/m2
14:24 2 °C 0.8 °C 996.5 hPa NW 4.8 km/h 9.7 km/h 92% 1.02 mm 218 W/m2
14:30 2.1 °C 0.9 °C 996.8 hPa NW 6.4 km/h 6.4 km/h 92% 0 mm 183 W/m2
14:36 2.1 °C 0.9 °C 996.8 hPa WNW 4.8 km/h 6.4 km/h 92% 0 mm 153 W/m2
14:42 1.9 °C 0.8 °C 996.8 hPa WNW 6.4 km/h 9.7 km/h 92% 2.29 mm 232 W/m2
14:48 2.1 °C 0.9 °C 996.8 hPa WNW 8 km/h 17.7 km/h 92% 2.29 mm 348 W/m2
14:54 2.3 °C 1.1 °C 997.2 hPa NW 8 km/h 14.5 km/h 92% 1.27 mm 127 W/m2
15:00 2.1 °C 0.9 °C 997.5 hPa NW 6.4 km/h 11.3 km/h 92% 0 mm 330 W/m2
15:06 2.1 °C 0.8 °C 997.5 hPa NNW 9.7 km/h 17.7 km/h 91% 0 mm 221 W/m2
15:12 2.2 °C 0.9 °C 997.5 hPa NW 11.3 km/h 16.1 km/h 91% 0 mm 174 W/m2
15:18 2.4 °C 0.9 °C 997.9 hPa West 8 km/h 16.1 km/h 90% 0 mm 192 W/m2
15:24 2.4 °C 0.8 °C 997.9 hPa NW 8 km/h 11.3 km/h 89% 0 mm 213 W/m2
15:30 2.4 °C 0.8 °C 997.9 hPa WNW 9.7 km/h 11.3 km/h 89% 0 mm 214 W/m2
15:36 2.4 °C 0.8 °C 997.9 hPa West 9.7 km/h 11.3 km/h 89% 0 mm 230 W/m2
15:42 2.3 °C 0.7 °C 998.2 hPa WNW 8 km/h 8 km/h 89% 0 mm 200 W/m2
15:48 2.1 °C 0.7 °C 998.2 hPa WNW 6.4 km/h 14.5 km/h 90% 0 mm 169 W/m2
15:54 1.9 °C 0.4 °C 998.2 hPa NW 9.7 km/h 11.3 km/h 90% 0 mm 195 W/m2
16:00 1.9 °C 0.5 °C 998.2 hPa WNW 8 km/h 8 km/h 90% 0 mm 149 W/m2
16:06 1.9 °C 0.4 °C 998.5 hPa NNW 6.4 km/h 8 km/h 90% 0 mm 104 W/m2
16:12 1.3 °C -0.1 °C 998.5 hPa West 8 km/h 14.5 km/h 90% 0 mm 148 W/m2
16:18 1.3 °C 0 °C 998.5 hPa NW 8 km/h 14.5 km/h 91% 1.78 mm 121 W/m2
16:24 1.4 °C 0.1 °C 998.9 hPa WNW 8 km/h 9.7 km/h 91% 1.78 mm 76 W/m2
16:30 1.5 °C 0.2 °C 998.9 hPa WNW 6.4 km/h 6.4 km/h 91% 1.02 mm 86 W/m2
16:36 1.6 °C 0.2 °C 998.9 hPa NW 6.4 km/h 11.3 km/h 91% 0 mm 109 W/m2
16:42 1.7 °C 0.3 °C 998.9 hPa NW 9.7 km/h 9.7 km/h 91% 0 mm 77 W/m2
16:48 1.7 °C 0.3 °C 999.2 hPa NNW 8 km/h 12.9 km/h 90% 0 mm 69 W/m2
16:54 1.7 °C 0.2 °C 999.5 hPa WNW 8 km/h 8 km/h 90% 0 mm 51 W/m2
17:00 1.7 °C -0.1 °C 999.5 hPa WNW 9.7 km/h 14.5 km/h 88% 0 mm 44 W/m2
17:06 1.7 °C -0.2 °C 999.5 hPa NW 8 km/h 14.5 km/h 87% 0 mm 39 W/m2
17:12 1.6 °C -0.3 °C 999.9 hPa NW 8 km/h 8 km/h 87% 0 mm 32 W/m2
17:18 1.6 °C -0.4 °C 1000.2 hPa NW 9.7 km/h 14.5 km/h 87% 0 mm 28 W/m2
17:24 1.5 °C -0.4 °C 1000.2 hPa NNW 8 km/h 9.7 km/h 87% 0 mm 25 W/m2
17:30 1.5 °C -0.4 °C 1000.2 hPa NW 6.4 km/h 9.7 km/h 87% 0 mm 21 W/m2
17:36 1.6 °C -0.6 °C 1000.6 hPa WNW 8 km/h 16.1 km/h 86% 0 mm 19 W/m2
17:42 1.6 °C -0.5 °C 1000.6 hPa West 6.4 km/h 8 km/h 86% 0 mm 19 W/m2
17:48 1.7 °C -0.6 °C 1000.6 hPa North 6.4 km/h 9.7 km/h 85% 0 mm 21 W/m2
17:54 1.7 °C -0.7 °C 1000.9 hPa NW 6.4 km/h 8 km/h 84% 0 mm 19 W/m2
18:00 1.7 °C -0.7 °C 1000.9 hPa NW 8 km/h 8 km/h 84% 0 mm 18 W/m2
18:06 1.7 °C -0.7 °C 1001.2 hPa West 8 km/h 12.9 km/h 84% 0 mm 12 W/m2
18:12 1.6 °C -0.8 °C 1001.2 hPa WNW 8 km/h 11.3 km/h 84% 0 mm 21 W/m2
18:18 1.6 °C -0.8 °C 1001.2 hPa NW 8 km/h 12.9 km/h 84% 0 mm 21 W/m2
18:24 1.5 °C -0.9 °C 1001.6 hPa NW 8 km/h 17.7 km/h 84% 0 mm 19 W/m2
18:30 1.5 °C -0.9 °C 1001.6 hPa WNW 8 km/h 8 km/h 84% 0 mm 14 W/m2
18:36 1.6 °C -1 °C 1001.6 hPa NW 8 km/h 9.7 km/h 83% 0 mm 14 W/m2
18:42 1.5 °C -0.9 °C 1001.6 hPa WNW 6.4 km/h 8 km/h 84% 0 mm 11 W/m2
18:48 1.4 °C -0.9 °C 1001.9 hPa WNW 6.4 km/h 11.3 km/h 84% 0 mm 9 W/m2
18:54 1.5 °C -0.9 °C 1002.3 hPa WNW 6.4 km/h 8 km/h 84% 0 mm 9 W/m2
19:00 1.5 °C -1.1 °C 1002.3 hPa NW 6.4 km/h 14.5 km/h 83% 0 mm 9 W/m2
19:06 1.6 °C -1 °C 1002.3 hPa WNW 6.4 km/h 14.5 km/h 83% 0 mm 7 W/m2
19:12 1.6 °C -1 °C 1002.3 hPa WNW 4.8 km/h 6.4 km/h 83% 0 mm 5 W/m2
19:18 1.6 °C -0.9 °C 1002.3 hPa NW 6.4 km/h 12.9 km/h 83% 0 mm 0 W/m2
19:24 1.7 °C -0.9 °C 1002.3 hPa West 6.4 km/h 8 km/h 83% 0 mm 0 W/m2
19:30 1.7 °C -1 °C 1002.6 hPa WNW 8 km/h 8 km/h 82% 0 mm 0 W/m2
19:36 1.8 °C -0.9 °C 1002.6 hPa NW 6.4 km/h 8 km/h 82% 0 mm 0 W/m2
19:42 1.8 °C -0.9 °C 1002.6 hPa West 4.8 km/h 8 km/h 82% 0 mm 0 W/m2
19:48 1.8 °C -0.9 °C 1002.9 hPa WNW 6.4 km/h 11.3 km/h 82% 0 mm 0 W/m2
19:54 1.8 °C -1.1 °C 1002.9 hPa WNW 6.4 km/h 8 km/h 81% 0 mm 0 W/m2
20:00 1.8 °C -0.9 °C 1002.9 hPa WNW 6.4 km/h 8 km/h 82% 0 mm 0 W/m2
20:06 1.8 °C -0.9 °C 1003.3 hPa WNW 4.8 km/h 8 km/h 82% 0 mm 0 W/m2
20:12 1.7 °C -0.8 °C 1003.3 hPa West 6.4 km/h 8 km/h 83% 0 mm 0 W/m2
20:18 1.7 °C -0.8 °C 1003.3 hPa WNW 6.4 km/h 8 km/h 83% 0 mm 0 W/m2
20:24 1.8 °C -0.6 °C 1003.6 hPa WNW 6.4 km/h 11.3 km/h 84% 0 mm 0 W/m2
20:30 1.8 °C -0.6 °C 1003.9 hPa WNW 6.4 km/h 6.4 km/h 84% 0 mm 0 W/m2
20:36 1.7 °C -0.7 °C 1003.9 hPa WNW 8 km/h 9.7 km/h 84% 0 mm 0 W/m2
20:42 1.7 °C -0.7 °C 1003.9 hPa NW 6.4 km/h 8 km/h 84% 0 mm 0 W/m2
20:48 1.7 °C -0.7 °C 1003.9 hPa West 6.4 km/h 12.9 km/h 84% 0 mm 0 W/m2
20:54 1.7 °C -0.7 °C 1003.9 hPa West 8 km/h 12.9 km/h 84% 0 mm 0 W/m2
21:00 1.8 °C -0.6 °C 1004.3 hPa NW 6.4 km/h 12.9 km/h 84% 0 mm 0 W/m2
21:06 1.8 °C -0.6 °C 1004.3 hPa West 6.4 km/h 12.9 km/h 84% 0 mm 0 W/m2
21:12 1.8 °C -0.6 °C 1004.3 hPa WNW 6.4 km/h 6.4 km/h 84% 0 mm 0 W/m2
21:18 1.9 °C -0.7 °C 1004.3 hPa WNW 6.4 km/h 8 km/h 83% 0 mm 0 W/m2
21:24 1.9 °C -0.7 °C 1004.3 hPa West 6.4 km/h 8 km/h 83% 0 mm 0 W/m2
21:30 1.9 °C -0.7 °C 1004.3 hPa West 6.4 km/h 12.9 km/h 83% 0 mm 0 W/m2
21:36 1.9 °C -0.7 °C 1004.6 hPa NW 6.4 km/h 12.9 km/h 83% 0 mm 0 W/m2
21:42 2.1 °C -0.7 °C 1004.6 hPa WNW 6.4 km/h 6.4 km/h 82% 0 mm 0 W/m2
21:48 2.1 °C -0.7 °C 1004.6 hPa WNW 6.4 km/h 9.7 km/h 82% 0 mm 0 W/m2
21:54 2.2 °C -0.8 °C 1004.6 hPa WNW 6.4 km/h 9.7 km/h 81% 0 mm 0 W/m2
22:00 2.2 °C -0.8 °C 1004.6 hPa WNW 6.4 km/h 6.4 km/h 81% 0 mm 0 W/m2
22:06 2.2 °C -0.9 °C 1004.6 hPa WNW 4.8 km/h 9.7 km/h 80% 0 mm 0 W/m2
22:12 2.3 °C -1 °C 1004.6 hPa WNW 8 km/h 11.3 km/h 79% 0 mm 0 W/m2
22:18 2.3 °C -1 °C 1005 hPa NW 6.4 km/h 11.3 km/h 79% 0 mm 0 W/m2
22:24 2.3 °C -1.3 °C 1005 hPa WNW 6.4 km/h 12.9 km/h 77% 0 mm 0 W/m2
22:30 2.3 °C -1.1 °C 1005 hPa WNW 6.4 km/h 8 km/h 78% 0 mm 0 W/m2
22:36 2.3 °C -1.1 °C 1005 hPa WNW 4.8 km/h 8 km/h 78% 0 mm 0 W/m2
22:42 2.3 °C -1.3 °C 1005 hPa WNW 6.4 km/h 9.7 km/h 77% 0 mm 0 W/m2
22:48 2.3 °C -1.4 °C 1005 hPa WNW 6.4 km/h 16.1 km/h 76% 0 mm 0 W/m2
22:54 2.4 °C -1.6 °C 1005 hPa WNW 6.4 km/h 9.7 km/h 75% 0 mm 0 W/m2
23:00 2.4 °C -1.7 °C 1005 hPa WSW 6.4 km/h 6.4 km/h 74% 0 mm 0 W/m2
23:06 2.4 °C -1.7 °C 1005 hPa WNW 6.4 km/h 9.7 km/h 74% 0 mm 0 W/m2
23:12 2.4 °C -1.8 °C 1005.3 hPa WNW 4.8 km/h 4.8 km/h 74% 0 mm 0 W/m2
23:18 2.4 °C -1.9 °C 1005 hPa WNW 6.4 km/h 9.7 km/h 73% 0 mm 0 W/m2
23:24 2.4 °C -2.1 °C 1005.3 hPa West 8 km/h 12.9 km/h 72% 0 mm 0 W/m2
23:30 2.4 °C -2.3 °C 1005.3 hPa WNW 8 km/h 8 km/h 71% 0 mm 0 W/m2
23:36 2.5 °C -2.6 °C 1005.3 hPa WNW 8 km/h 12.9 km/h 69% 0 mm 0 W/m2
23:42 2.4 °C -2.5 °C 1005.3 hPa WNW 6.4 km/h 8 km/h 70% 0 mm 0 W/m2
23:48 2.4 °C -2.7 °C 1005.3 hPa WNW 6.4 km/h 14.5 km/h 69% 0 mm 0 W/m2
23:54 2.4 °C -2.7 °C 1005.3 hPa WNW 8 km/h 8 km/h 69% 0 mm 0 W/m2
Country Meadow, Clay, NY, USA
Compliments of Weather Underground - 2 mb